sensor_id;sensor_type;location;lat;lon;timestamp;P1;durP1;ratioP1;P2;durP2;ratioP2
76115;SDS011;64847;45.778;12.802;2024-02-26T00:00:06;3.67;;;3.37;;
76115;SDS011;64847;45.778;12.802;2024-02-26T00:02:35;3.73;;;3.53;;
76115;SDS011;64847;45.778;12.802;2024-02-26T00:05:05;3.83;;;3.37;;
76115;SDS011;64847;45.778;12.802;2024-02-26T00:07:31;3.23;;;3.03;;
76115;SDS011;64847;45.778;12.802;2024-02-26T00:09:56;3.60;;;3.40;;
76115;SDS011;64847;45.778;12.802;2024-02-26T00:12:22;3.40;;;3.20;;
76115;SDS011;64847;45.778;12.802;2024-02-26T00:14:47;3.40;;;3.20;;
76115;SDS011;64847;45.778;12.802;2024-02-26T00:17:14;3.60;;;3.40;;
76115;SDS011;64847;45.778;12.802;2024-02-26T00:19:40;3.60;;;3.37;;
76115;SDS011;64847;45.778;12.802;2024-02-26T00:22:05;3.10;;;2.90;;
76115;SDS011;64847;45.778;12.802;2024-02-26T00:24:31;3.70;;;3.40;;
76115;SDS011;64847;45.778;12.802;2024-02-26T00:26:56;3.40;;;3.20;;
76115;SDS011;64847;45.778;12.802;2024-02-26T00:29:22;3.47;;;3.27;;
76115;SDS011;64847;45.778;12.802;2024-02-26T00:31:48;3.50;;;3.20;;
76115;SDS011;64847;45.778;12.802;2024-02-26T00:34:14;3.50;;;3.30;;
76115;SDS011;64847;45.778;12.802;2024-02-26T00:36:39;3.40;;;3.20;;
76115;SDS011;64847;45.778;12.802;2024-02-26T00:39:04;3.43;;;3.23;;
76115;SDS011;64847;45.778;12.802;2024-02-26T00:41:30;3.50;;;3.30;;
76115;SDS011;64847;45.778;12.802;2024-02-26T00:43:55;3.20;;;3.00;;
76115;SDS011;64847;45.778;12.802;2024-02-26T00:46:21;4.20;;;3.80;;
76115;SDS011;64847;45.778;12.802;2024-02-26T00:48:46;3.30;;;3.00;;
76115;SDS011;64847;45.778;12.802;2024-02-26T00:51:11;3.57;;;3.37;;
76115;SDS011;64847;45.778;12.802;2024-02-26T00:53:37;3.67;;;3.37;;
76115;SDS011;64847;45.778;12.802;2024-02-26T00:56:02;4.00;;;3.70;;
76115;SDS011;64847;45.778;12.802;2024-02-26T00:58:28;3.80;;;3.57;;
76115;SDS011;64847;45.778;12.802;2024-02-26T01:00:53;3.87;;;3.67;;
76115;SDS011;64847;45.778;12.802;2024-02-26T01:03:19;3.63;;;3.33;;
76115;SDS011;64847;45.778;12.802;2024-02-26T01:05:45;3.47;;;3.17;;
76115;SDS011;64847;45.778;12.802;2024-02-26T01:08:10;3.53;;;3.33;;
76115;SDS011;64847;45.778;12.802;2024-02-26T01:10:36;3.80;;;3.50;;
76115;SDS011;64847;45.778;12.802;2024-02-26T01:13:01;4.10;;;3.80;;
76115;SDS011;64847;45.778;12.802;2024-02-26T01:15:27;4.03;;;3.73;;
76115;SDS011;64847;45.778;12.802;2024-02-26T01:17:52;3.67;;;3.37;;
76115;SDS011;64847;45.778;12.802;2024-02-26T01:20:18;3.87;;;3.57;;
76115;SDS011;64847;45.778;12.802;2024-02-26T01:22:44;3.80;;;3.57;;
76115;SDS011;64847;45.778;12.802;2024-02-26T01:25:09;4.00;;;3.70;;
76115;SDS011;64847;45.778;12.802;2024-02-26T01:27:36;3.87;;;3.57;;
76115;SDS011;64847;45.778;12.802;2024-02-26T01:30:05;3.60;;;3.40;;
76115;SDS011;64847;45.778;12.802;2024-02-26T01:32:31;3.80;;;3.50;;
76115;SDS011;64847;45.778;12.802;2024-02-26T01:34:56;3.73;;;3.50;;
76115;SDS011;64847;45.778;12.802;2024-02-26T01:37:22;3.70;;;3.50;;
76115;SDS011;64847;45.778;12.802;2024-02-26T01:39:47;3.67;;;3.47;;
76115;SDS011;64847;45.778;12.802;2024-02-26T01:42:13;3.87;;;3.57;;
76115;SDS011;64847;45.778;12.802;2024-02-26T01:44:38;3.53;;;3.33;;
76115;SDS011;64847;45.778;12.802;2024-02-26T01:47:04;3.20;;;3.00;;
76115;SDS011;64847;45.778;12.802;2024-02-26T01:49:30;3.30;;;3.10;;
76115;SDS011;64847;45.778;12.802;2024-02-26T01:51:56;3.37;;;3.17;;
76115;SDS011;64847;45.778;12.802;2024-02-26T01:54:22;2.93;;;2.73;;
76115;SDS011;64847;45.778;12.802;2024-02-26T01:56:48;2.87;;;2.67;;
76115;SDS011;64847;45.778;12.802;2024-02-26T01:59:14;2.70;;;2.60;;
76115;SDS011;64847;45.778;12.802;2024-02-26T02:01:39;2.90;;;2.80;;
76115;SDS011;64847;45.778;12.802;2024-02-26T02:04:10;2.83;;;2.70;;
76115;SDS011;64847;45.778;12.802;2024-02-26T02:06:36;3.10;;;2.90;;
76115;SDS011;64847;45.778;12.802;2024-02-26T02:09:02;3.30;;;3.10;;
76115;SDS011;64847;45.778;12.802;2024-02-26T02:11:32;3.73;;;3.20;;
76115;SDS011;64847;45.778;12.802;2024-02-26T02:13:58;3.23;;;3.03;;
76115;SDS011;64847;45.778;12.802;2024-02-26T02:16:24;3.83;;;3.40;;
76115;SDS011;64847;45.778;12.802;2024-02-26T02:18:49;3.47;;;3.17;;
76115;SDS011;64847;45.778;12.802;2024-02-26T02:21:15;3.43;;;3.10;;
76115;SDS011;64847;45.778;12.802;2024-02-26T02:23:40;3.60;;;3.30;;
76115;SDS011;64847;45.778;12.802;2024-02-26T02:26:11;3.83;;;3.40;;
76115;SDS011;64847;45.778;12.802;2024-02-26T02:28:36;3.53;;;3.33;;
76115;SDS011;64847;45.778;12.802;2024-02-26T02:31:02;3.30;;;3.00;;
76115;SDS011;64847;45.778;12.802;2024-02-26T02:33:28;3.30;;;3.10;;
76115;SDS011;64847;45.778;12.802;2024-02-26T02:35:54;3.40;;;3.20;;
76115;SDS011;64847;45.778;12.802;2024-02-26T02:38:20;3.67;;;3.47;;
76115;SDS011;64847;45.778;12.802;2024-02-26T02:40:46;4.13;;;3.07;;
76115;SDS011;64847;45.778;12.802;2024-02-26T02:43:11;3.30;;;3.10;;
76115;SDS011;64847;45.778;12.802;2024-02-26T02:45:36;2.97;;;2.77;;
76115;SDS011;64847;45.778;12.802;2024-02-26T02:48:02;3.40;;;3.20;;
76115;SDS011;64847;45.778;12.802;2024-02-26T02:50:28;2.97;;;2.87;;
76115;SDS011;64847;45.778;12.802;2024-02-26T02:52:54;2.97;;;2.80;;
76115;SDS011;64847;45.778;12.802;2024-02-26T02:55:19;3.07;;;2.87;;
76115;SDS011;64847;45.778;12.802;2024-02-26T02:57:45;3.17;;;2.97;;
76115;SDS011;64847;45.778;12.802;2024-02-26T03:00:10;3.30;;;3.10;;
76115;SDS011;64847;45.778;12.802;2024-02-26T03:02:36;3.40;;;2.80;;
76115;SDS011;64847;45.778;12.802;2024-02-26T03:05:02;3.50;;;3.30;;
76115;SDS011;64847;45.778;12.802;2024-02-26T03:07:28;3.70;;;3.40;;
76115;SDS011;64847;45.778;12.802;2024-02-26T03:09:54;3.60;;;3.10;;
76115;SDS011;64847;45.778;12.802;2024-02-26T03:12:19;3.90;;;3.63;;
76115;SDS011;64847;45.778;12.802;2024-02-26T03:14:45;4.00;;;3.70;;
76115;SDS011;64847;45.778;12.802;2024-02-26T03:17:10;3.97;;;3.67;;
76115;SDS011;64847;45.778;12.802;2024-02-26T03:19:35;3.93;;;3.53;;
76115;SDS011;64847;45.778;12.802;2024-02-26T03:22:01;4.37;;;4.03;;
76115;SDS011;64847;45.778;12.802;2024-02-26T03:24:27;4.13;;;3.83;;
76115;SDS011;64847;45.778;12.802;2024-02-26T03:26:52;4.03;;;3.73;;
76115;SDS011;64847;45.778;12.802;2024-02-26T03:29:18;4.00;;;3.63;;
76115;SDS011;64847;45.778;12.802;2024-02-26T03:31:43;3.90;;;3.60;;
76115;SDS011;64847;45.778;12.802;2024-02-26T03:34:09;4.27;;;3.97;;
76115;SDS011;64847;45.778;12.802;2024-02-26T03:36:35;3.70;;;3.50;;
76115;SDS011;64847;45.778;12.802;2024-02-26T03:39:00;3.93;;;3.63;;
76115;SDS011;64847;45.778;12.802;2024-02-26T03:41:27;4.40;;;4.00;;
76115;SDS011;64847;45.778;12.802;2024-02-26T03:43:52;4.00;;;3.70;;
76115;SDS011;64847;45.778;12.802;2024-02-26T03:46:18;3.70;;;3.40;;
76115;SDS011;64847;45.778;12.802;2024-02-26T03:48:43;4.00;;;3.70;;
76115;SDS011;64847;45.778;12.802;2024-02-26T03:51:09;4.10;;;3.80;;
76115;SDS011;64847;45.778;12.802;2024-02-26T03:53:35;4.03;;;3.73;;
76115;SDS011;64847;45.778;12.802;2024-02-26T03:56:04;3.70;;;3.43;;
76115;SDS011;64847;45.778;12.802;2024-02-26T03:58:30;3.87;;;3.57;;
76115;SDS011;64847;45.778;12.802;2024-02-26T04:00:57;3.60;;;3.40;;
76115;SDS011;64847;45.778;12.802;2024-02-26T04:03:23;3.40;;;3.10;;
76115;SDS011;64847;45.778;12.802;2024-02-26T04:05:48;3.43;;;3.20;;
76115;SDS011;64847;45.778;12.802;2024-02-26T04:08:14;3.03;;;2.83;;
76115;SDS011;64847;45.778;12.802;2024-02-26T04:10:39;3.20;;;3.10;;
76115;SDS011;64847;45.778;12.802;2024-02-26T04:13:06;3.40;;;3.20;;
76115;SDS011;64847;45.778;12.802;2024-02-26T04:15:32;3.47;;;3.27;;
76115;SDS011;64847;45.778;12.802;2024-02-26T04:17:58;3.70;;;3.40;;
76115;SDS011;64847;45.778;12.802;2024-02-26T04:20:23;3.70;;;3.40;;
76115;SDS011;64847;45.778;12.802;2024-02-26T04:22:49;4.20;;;3.90;;
76115;SDS011;64847;45.778;12.802;2024-02-26T04:25:14;3.90;;;3.67;;
76115;SDS011;64847;45.778;12.802;2024-02-26T04:27:40;5.07;;;4.00;;
76115;SDS011;64847;45.778;12.802;2024-02-26T04:30:06;4.10;;;3.80;;
76115;SDS011;64847;45.778;12.802;2024-02-26T04:32:31;4.60;;;4.23;;
76115;SDS011;64847;45.778;12.802;2024-02-26T04:34:57;4.67;;;4.27;;
76115;SDS011;64847;45.778;12.802;2024-02-26T04:37:22;4.33;;;4.03;;
76115;SDS011;64847;45.778;12.802;2024-02-26T04:39:48;4.47;;;4.17;;
76115;SDS011;64847;45.778;12.802;2024-02-26T04:42:13;4.10;;;3.80;;
76115;SDS011;64847;45.778;12.802;2024-02-26T04:44:39;4.27;;;3.97;;
76115;SDS011;64847;45.778;12.802;2024-02-26T04:47:04;4.67;;;4.30;;
76115;SDS011;64847;45.778;12.802;2024-02-26T04:49:30;3.70;;;3.50;;
76115;SDS011;64847;45.778;12.802;2024-02-26T04:51:55;4.67;;;4.27;;
76115;SDS011;64847;45.778;12.802;2024-02-26T04:54:21;4.77;;;4.47;;
76115;SDS011;64847;45.778;12.802;2024-02-26T04:56:47;4.80;;;4.30;;
76115;SDS011;64847;45.778;12.802;2024-02-26T04:59:13;3.83;;;3.60;;
76115;SDS011;64847;45.778;12.802;2024-02-26T05:01:39;4.40;;;4.10;;
76115;SDS011;64847;45.778;12.802;2024-02-26T05:04:04;4.40;;;4.10;;
76115;SDS011;64847;45.778;12.802;2024-02-26T05:06:30;4.13;;;3.83;;
76115;SDS011;64847;45.778;12.802;2024-02-26T05:08:55;4.80;;;4.40;;
76115;SDS011;64847;45.778;12.802;2024-02-26T05:11:20;4.60;;;4.13;;
76115;SDS011;64847;45.778;12.802;2024-02-26T05:13:47;4.40;;;4.10;;
76115;SDS011;64847;45.778;12.802;2024-02-26T05:16:13;4.83;;;4.43;;
76115;SDS011;64847;45.778;12.802;2024-02-26T05:18:38;4.77;;;4.40;;
76115;SDS011;64847;45.778;12.802;2024-02-26T05:21:04;4.50;;;4.10;;
76115;SDS011;64847;45.778;12.802;2024-02-26T05:23:29;4.33;;;4.03;;
76115;SDS011;64847;45.778;12.802;2024-02-26T05:25:55;5.07;;;4.67;;
76115;SDS011;64847;45.778;12.802;2024-02-26T05:28:20;5.10;;;4.70;;
76115;SDS011;64847;45.778;12.802;2024-02-26T05:30:46;4.87;;;4.50;;
76115;SDS011;64847;45.778;12.802;2024-02-26T05:33:11;4.70;;;4.30;;
76115;SDS011;64847;45.778;12.802;2024-02-26T05:35:37;4.90;;;4.50;;
76115;SDS011;64847;45.778;12.802;2024-02-26T05:38:03;4.87;;;4.40;;
76115;SDS011;64847;45.778;12.802;2024-02-26T05:40:28;4.97;;;4.57;;
76115;SDS011;64847;45.778;12.802;2024-02-26T05:42:55;4.73;;;4.33;;
76115;SDS011;64847;45.778;12.802;2024-02-26T05:45:20;4.50;;;4.10;;
76115;SDS011;64847;45.778;12.802;2024-02-26T05:47:47;4.20;;;3.90;;
76115;SDS011;64847;45.778;12.802;2024-02-26T05:50:12;4.60;;;4.20;;
76115;SDS011;64847;45.778;12.802;2024-02-26T05:52:39;5.00;;;4.30;;
76115;SDS011;64847;45.778;12.802;2024-02-26T05:55:05;4.13;;;3.83;;
76115;SDS011;64847;45.778;12.802;2024-02-26T05:57:31;4.20;;;3.90;;
76115;SDS011;64847;45.778;12.802;2024-02-26T05:59:57;4.47;;;4.07;;
76115;SDS011;64847;45.778;12.802;2024-02-26T06:02:25;4.63;;;4.33;;
76115;SDS011;64847;45.778;12.802;2024-02-26T06:04:51;3.93;;;3.63;;
76115;SDS011;64847;45.778;12.802;2024-02-26T06:07:16;3.63;;;3.43;;
76115;SDS011;64847;45.778;12.802;2024-02-26T06:09:42;4.37;;;3.97;;
76115;SDS011;64847;45.778;12.802;2024-02-26T06:12:07;3.97;;;3.67;;
76115;SDS011;64847;45.778;12.802;2024-02-26T06:14:33;3.63;;;3.33;;
76115;SDS011;64847;45.778;12.802;2024-02-26T06:16:58;4.00;;;3.70;;
76115;SDS011;64847;45.778;12.802;2024-02-26T06:19:23;5.17;;;3.87;;
76115;SDS011;64847;45.778;12.802;2024-02-26T06:21:49;4.20;;;3.90;;
76115;SDS011;64847;45.778;12.802;2024-02-26T06:24:16;4.70;;;4.10;;
76115;SDS011;64847;45.778;12.802;2024-02-26T06:26:41;4.70;;;3.97;;
76115;SDS011;64847;45.778;12.802;2024-02-26T06:29:06;4.77;;;4.17;;
76115;SDS011;64847;45.778;12.802;2024-02-26T06:31:32;4.70;;;4.20;;
76115;SDS011;64847;45.778;12.802;2024-02-26T06:33:57;7.07;;;5.27;;
76115;SDS011;64847;45.778;12.802;2024-02-26T06:36:23;7.77;;;5.07;;
76115;SDS011;64847;45.778;12.802;2024-02-26T06:38:48;7.77;;;5.40;;
76115;SDS011;64847;45.778;12.802;2024-02-26T06:41:14;8.03;;;5.93;;
76115;SDS011;64847;45.778;12.802;2024-02-26T06:43:39;7.90;;;5.87;;
76115;SDS011;64847;45.778;12.802;2024-02-26T06:46:05;8.50;;;5.60;;
76115;SDS011;64847;45.778;12.802;2024-02-26T06:48:31;9.63;;;6.47;;
76115;SDS011;64847;45.778;12.802;2024-02-26T06:50:57;8.63;;;5.77;;
76115;SDS011;64847;45.778;12.802;2024-02-26T06:53:22;8.20;;;5.43;;
76115;SDS011;64847;45.778;12.802;2024-02-26T06:55:48;9.90;;;6.30;;
76115;SDS011;64847;45.778;12.802;2024-02-26T06:58:15;10.60;;;6.07;;
76115;SDS011;64847;45.778;12.802;2024-02-26T07:00:40;9.17;;;6.07;;
76115;SDS011;64847;45.778;12.802;2024-02-26T07:03:06;10.03;;;6.03;;
76115;SDS011;64847;45.778;12.802;2024-02-26T07:05:31;7.70;;;6.07;;
76115;SDS011;64847;45.778;12.802;2024-02-26T07:07:57;10.50;;;5.90;;
76115;SDS011;64847;45.778;12.802;2024-02-26T07:10:23;9.07;;;6.23;;
76115;SDS011;64847;45.778;12.802;2024-02-26T07:12:48;10.63;;;6.00;;
76115;SDS011;64847;45.778;12.802;2024-02-26T07:15:13;9.37;;;5.47;;
76115;SDS011;64847;45.778;12.802;2024-02-26T07:17:39;6.03;;;4.90;;
76115;SDS011;64847;45.778;12.802;2024-02-26T07:20:12;8.40;;;5.67;;
76115;SDS011;64847;45.778;12.802;2024-02-26T07:22:37;7.60;;;5.43;;
76115;SDS011;64847;45.778;12.802;2024-02-26T07:25:03;8.10;;;5.10;;
76115;SDS011;64847;45.778;12.802;2024-02-26T07:27:28;7.63;;;5.87;;
76115;SDS011;64847;45.778;12.802;2024-02-26T07:29:54;7.53;;;5.40;;
76115;SDS011;64847;45.778;12.802;2024-02-26T07:32:19;7.53;;;4.97;;
76115;SDS011;64847;45.778;12.802;2024-02-26T07:34:45;8.07;;;5.77;;
76115;SDS011;64847;45.778;12.802;2024-02-26T07:37:11;7.53;;;5.10;;
76115;SDS011;64847;45.778;12.802;2024-02-26T07:39:36;6.60;;;5.10;;
76115;SDS011;64847;45.778;12.802;2024-02-26T07:42:02;6.90;;;5.10;;
76115;SDS011;64847;45.778;12.802;2024-02-26T07:44:28;5.97;;;4.90;;
76115;SDS011;64847;45.778;12.802;2024-02-26T07:46:54;7.67;;;5.40;;
76115;SDS011;64847;45.778;12.802;2024-02-26T07:49:19;6.27;;;5.40;;
76115;SDS011;64847;45.778;12.802;2024-02-26T07:51:45;6.10;;;4.90;;
76115;SDS011;64847;45.778;12.802;2024-02-26T07:54:10;8.07;;;5.30;;
76115;SDS011;64847;45.778;12.802;2024-02-26T07:56:35;7.63;;;5.60;;
76115;SDS011;64847;45.778;12.802;2024-02-26T07:59:01;8.20;;;5.40;;
76115;SDS011;64847;45.778;12.802;2024-02-26T08:01:27;6.77;;;5.60;;
76115;SDS011;64847;45.778;12.802;2024-02-26T08:03:53;6.70;;;5.10;;
76115;SDS011;64847;45.778;12.802;2024-02-26T08:06:18;6.50;;;5.40;;
76115;SDS011;64847;45.778;12.802;2024-02-26T08:08:44;7.40;;;5.33;;
76115;SDS011;64847;45.778;12.802;2024-02-26T08:11:09;8.10;;;5.80;;
76115;SDS011;64847;45.778;12.802;2024-02-26T08:13:34;7.20;;;5.63;;
76115;SDS011;64847;45.778;12.802;2024-02-26T08:16:00;7.57;;;5.40;;
76115;SDS011;64847;45.778;12.802;2024-02-26T08:18:26;8.30;;;5.50;;
76115;SDS011;64847;45.778;12.802;2024-02-26T08:20:51;7.03;;;5.53;;
76115;SDS011;64847;45.778;12.802;2024-02-26T08:23:17;5.70;;;4.87;;
76115;SDS011;64847;45.778;12.802;2024-02-26T08:25:42;7.23;;;5.00;;
76115;SDS011;64847;45.778;12.802;2024-02-26T08:28:08;6.33;;;4.50;;
76115;SDS011;64847;45.778;12.802;2024-02-26T08:30:33;6.17;;;4.67;;
76115;SDS011;64847;45.778;12.802;2024-02-26T08:32:59;6.83;;;4.63;;
76115;SDS011;64847;45.778;12.802;2024-02-26T08:35:25;5.97;;;4.60;;
76115;SDS011;64847;45.778;12.802;2024-02-26T08:37:50;4.90;;;4.40;;
76115;SDS011;64847;45.778;12.802;2024-02-26T08:40:16;7.13;;;5.03;;
76115;SDS011;64847;45.778;12.802;2024-02-26T08:42:41;6.13;;;4.50;;
76115;SDS011;64847;45.778;12.802;2024-02-26T08:45:07;5.27;;;4.37;;
76115;SDS011;64847;45.778;12.802;2024-02-26T08:47:33;4.63;;;4.10;;
76115;SDS011;64847;45.778;12.802;2024-02-26T08:49:59;5.10;;;4.57;;
76115;SDS011;64847;45.778;12.802;2024-02-26T08:52:24;5.83;;;4.17;;
76115;SDS011;64847;45.778;12.802;2024-02-26T08:54:50;6.17;;;4.40;;
76115;SDS011;64847;45.778;12.802;2024-02-26T08:57:15;5.37;;;4.37;;
76115;SDS011;64847;45.778;12.802;2024-02-26T08:59:41;5.67;;;4.50;;
76115;SDS011;64847;45.778;12.802;2024-02-26T09:02:07;6.07;;;4.07;;
76115;SDS011;64847;45.778;12.802;2024-02-26T09:04:34;4.97;;;3.73;;
76115;SDS011;64847;45.778;12.802;2024-02-26T09:07:00;4.83;;;4.37;;
76115;SDS011;64847;45.778;12.802;2024-02-26T09:09:26;5.70;;;4.30;;
76115;SDS011;64847;45.778;12.802;2024-02-26T09:11:51;5.00;;;3.77;;
76115;SDS011;64847;45.778;12.802;2024-02-26T09:14:17;4.60;;;4.10;;
76115;SDS011;64847;45.778;12.802;2024-02-26T09:16:43;5.03;;;4.00;;
76115;SDS011;64847;45.778;12.802;2024-02-26T09:19:09;4.30;;;3.90;;
76115;SDS011;64847;45.778;12.802;2024-02-26T09:21:34;4.60;;;3.80;;
76115;SDS011;64847;45.778;12.802;2024-02-26T09:24:00;4.57;;;3.70;;
76115;SDS011;64847;45.778;12.802;2024-02-26T09:26:25;6.10;;;4.53;;
76115;SDS011;64847;45.778;12.802;2024-02-26T09:28:51;4.23;;;3.83;;
76115;SDS011;64847;45.778;12.802;2024-02-26T09:31:17;7.10;;;5.13;;
76115;SDS011;64847;45.778;12.802;2024-02-26T09:33:43;6.30;;;4.40;;
76115;SDS011;64847;45.778;12.802;2024-02-26T09:36:08;5.23;;;4.57;;
76115;SDS011;64847;45.778;12.802;2024-02-26T09:38:36;5.80;;;4.63;;
76115;SDS011;64847;45.778;12.802;2024-02-26T09:41:03;6.00;;;4.90;;
76115;SDS011;64847;45.778;12.802;2024-02-26T09:43:32;5.43;;;4.87;;
76115;SDS011;64847;45.778;12.802;2024-02-26T09:45:59;6.50;;;5.40;;
76115;SDS011;64847;45.778;12.802;2024-02-26T09:48:25;5.37;;;4.80;;
76115;SDS011;64847;45.778;12.802;2024-02-26T09:50:50;6.83;;;4.80;;
76115;SDS011;64847;45.778;12.802;2024-02-26T09:53:16;5.20;;;4.57;;
76115;SDS011;64847;45.778;12.802;2024-02-26T09:55:42;6.20;;;4.63;;
76115;SDS011;64847;45.778;12.802;2024-02-26T09:58:07;7.03;;;4.57;;
76115;SDS011;64847;45.778;12.802;2024-02-26T10:00:35;5.03;;;4.03;;
76115;SDS011;64847;45.778;12.802;2024-02-26T10:03:03;6.97;;;4.13;;
76115;SDS011;64847;45.778;12.802;2024-02-26T10:05:30;5.67;;;4.37;;
76115;SDS011;64847;45.778;12.802;2024-02-26T10:07:56;5.50;;;3.87;;
76115;SDS011;64847;45.778;12.802;2024-02-26T10:10:22;5.17;;;3.80;;
76115;SDS011;64847;45.778;12.802;2024-02-26T10:12:48;4.30;;;3.90;;
76115;SDS011;64847;45.778;12.802;2024-02-26T10:15:14;4.83;;;3.23;;
76115;SDS011;64847;45.778;12.802;2024-02-26T10:17:39;4.97;;;3.47;;
76115;SDS011;64847;45.778;12.802;2024-02-26T10:20:15;3.73;;;3.40;;
76115;SDS011;64847;45.778;12.802;2024-02-26T10:22:53;3.90;;;3.50;;
76115;SDS011;64847;45.778;12.802;2024-02-26T10:25:18;3.60;;;3.30;;
76115;SDS011;64847;45.778;12.802;2024-02-26T10:27:44;4.03;;;3.33;;
76115;SDS011;64847;45.778;12.802;2024-02-26T10:30:20;3.50;;;3.30;;
76115;SDS011;64847;45.778;12.802;2024-02-26T10:32:48;4.07;;;3.50;;
76115;SDS011;64847;45.778;12.802;2024-02-26T10:35:14;4.10;;;3.17;;
76115;SDS011;64847;45.778;12.802;2024-02-26T10:37:40;3.77;;;3.10;;
76115;SDS011;64847;45.778;12.802;2024-02-26T10:40:09;3.70;;;3.40;;
76115;SDS011;64847;45.778;12.802;2024-02-26T10:42:38;5.50;;;3.37;;
76115;SDS011;64847;45.778;12.802;2024-02-26T10:45:07;3.70;;;3.13;;
76115;SDS011;64847;45.778;12.802;2024-02-26T10:47:37;2.97;;;2.73;;
76115;SDS011;64847;45.778;12.802;2024-02-26T10:50:03;3.50;;;2.60;;
76115;SDS011;64847;45.778;12.802;2024-02-26T10:52:34;5.17;;;2.80;;
76115;SDS011;64847;45.778;12.802;2024-02-26T10:55:00;4.03;;;3.20;;
76115;SDS011;64847;45.778;12.802;2024-02-26T10:57:50;3.93;;;3.10;;
76115;SDS011;64847;45.778;12.802;2024-02-26T11:00:17;3.40;;;3.10;;
76115;SDS011;64847;45.778;12.802;2024-02-26T11:02:44;3.42;;;3.08;;
76115;SDS011;64847;45.778;12.802;2024-02-26T11:05:11;3.40;;;3.10;;
76115;SDS011;64847;45.778;12.802;2024-02-26T11:07:37;3.47;;;3.17;;
76115;SDS011;64847;45.778;12.802;2024-02-26T11:10:04;3.17;;;2.93;;
76115;SDS011;64847;45.778;12.802;2024-02-26T11:12:31;3.47;;;3.07;;
76115;SDS011;64847;45.778;12.802;2024-02-26T11:14:57;3.57;;;2.90;;
76115;SDS011;64847;45.778;12.802;2024-02-26T11:17:26;3.13;;;2.83;;
76115;SDS011;64847;45.778;12.802;2024-02-26T11:19:57;3.00;;;2.80;;
76115;SDS011;64847;45.778;12.802;2024-02-26T11:22:24;2.93;;;2.70;;
76115;SDS011;64847;45.778;12.802;2024-02-26T11:24:54;4.87;;;3.00;;
76115;SDS011;64847;45.778;12.802;2024-02-26T11:27:23;3.87;;;2.70;;
76115;SDS011;64847;45.778;12.802;2024-02-26T11:30:04;2.90;;;2.47;;
76115;SDS011;64847;45.778;12.802;2024-02-26T11:32:30;3.47;;;2.43;;
76115;SDS011;64847;45.778;12.802;2024-02-26T11:34:56;3.23;;;2.40;;
76115;SDS011;64847;45.778;12.802;2024-02-26T11:37:23;3.10;;;2.80;;
76115;SDS011;64847;45.778;12.802;2024-02-26T11:39:48;2.77;;;2.57;;
76115;SDS011;64847;45.778;12.802;2024-02-26T11:42:16;4.93;;;2.50;;
76115;SDS011;64847;45.778;12.802;2024-02-26T11:44:43;3.73;;;2.70;;
76115;SDS011;64847;45.778;12.802;2024-02-26T11:47:14;3.33;;;2.93;;
76115;SDS011;64847;45.778;12.802;2024-02-26T11:49:43;2.90;;;2.67;;
76115;SDS011;64847;45.778;12.802;2024-02-26T11:52:09;2.60;;;2.40;;
76115;SDS011;64847;45.778;12.802;2024-02-26T11:59:57;3.33;;;2.10;;
76115;SDS011;64847;45.778;12.802;2024-02-26T12:05:10;3.83;;;2.20;;
76115;SDS011;64847;45.778;12.802;2024-02-26T12:07:39;3.73;;;2.27;;
76115;SDS011;64847;45.778;12.802;2024-02-26T12:10:27;2.43;;;2.17;;
76115;SDS011;64847;45.778;12.802;2024-02-26T12:13:04;3.43;;;2.70;;
76115;SDS011;64847;45.778;12.802;2024-02-26T12:15:42;2.60;;;2.43;;
76115;SDS011;64847;45.778;12.802;2024-02-26T12:18:09;3.13;;;2.73;;
76115;SDS011;64847;45.778;12.802;2024-02-26T12:20:39;2.40;;;2.20;;
76115;SDS011;64847;45.778;12.802;2024-02-26T12:23:04;3.10;;;2.80;;
76115;SDS011;64847;45.778;12.802;2024-02-26T12:25:31;2.43;;;2.23;;
76115;SDS011;64847;45.778;12.802;2024-02-26T12:27:57;3.00;;;2.63;;
76115;SDS011;64847;45.778;12.802;2024-02-26T12:30:23;3.50;;;2.77;;
76115;SDS011;64847;45.778;12.802;2024-02-26T12:32:50;2.83;;;2.63;;
76115;SDS011;64847;45.778;12.802;2024-02-26T12:35:22;3.00;;;2.80;;
76115;SDS011;64847;45.778;12.802;2024-02-26T12:37:47;3.67;;;3.00;;
76115;SDS011;64847;45.778;12.802;2024-02-26T12:40:13;3.30;;;3.00;;
76115;SDS011;64847;45.778;12.802;2024-02-26T12:42:39;3.00;;;2.80;;
76115;SDS011;64847;45.778;12.802;2024-02-26T12:45:14;3.23;;;2.93;;
76115;SDS011;64847;45.778;12.802;2024-02-26T12:47:44;3.77;;;3.10;;
76115;SDS011;64847;45.778;12.802;2024-02-26T12:50:16;3.20;;;2.80;;
76115;SDS011;64847;45.778;12.802;2024-02-26T12:52:45;4.90;;;3.13;;
76115;SDS011;64847;45.778;12.802;2024-02-26T12:55:15;2.60;;;2.40;;
76115;SDS011;64847;45.778;12.802;2024-02-26T12:57:43;3.17;;;2.77;;
76115;SDS011;64847;45.778;12.802;2024-02-26T13:00:11;2.47;;;2.27;;
76115;SDS011;64847;45.778;12.802;2024-02-26T13:02:38;2.90;;;2.50;;
76115;SDS011;64847;45.778;12.802;2024-02-26T13:05:04;5.00;;;2.70;;
76115;SDS011;64847;45.778;12.802;2024-02-26T13:07:31;2.90;;;2.67;;
76115;SDS011;64847;45.778;12.802;2024-02-26T13:09:56;2.50;;;2.30;;
76115;SDS011;64847;45.778;12.802;2024-02-26T13:12:22;2.63;;;2.30;;
76115;SDS011;64847;45.778;12.802;2024-02-26T13:14:57;2.00;;;1.90;;
76115;SDS011;64847;45.778;12.802;2024-02-26T13:17:24;2.97;;;2.43;;
76115;SDS011;64847;45.778;12.802;2024-02-26T13:19:52;5.13;;;2.63;;
76115;SDS011;64847;45.778;12.802;2024-02-26T13:22:20;2.57;;;2.37;;
76115;SDS011;64847;45.778;12.802;2024-02-26T13:24:52;2.00;;;1.90;;
76115;SDS011;64847;45.778;12.802;2024-02-26T13:27:22;2.17;;;2.07;;
76115;SDS011;64847;45.778;12.802;2024-02-26T13:29:48;2.30;;;2.10;;
76115;SDS011;64847;45.778;12.802;2024-02-26T13:32:14;1.77;;;1.67;;
76115;SDS011;64847;45.778;12.802;2024-02-26T13:34:39;2.27;;;2.13;;
76115;SDS011;64847;45.778;12.802;2024-02-26T13:37:05;3.23;;;2.50;;
76115;SDS011;64847;45.778;12.802;2024-02-26T13:39:30;2.07;;;1.97;;
76115;SDS011;64847;45.778;12.802;2024-02-26T13:41:56;2.30;;;2.10;;
76115;SDS011;64847;45.778;12.802;2024-02-26T13:44:22;2.30;;;2.10;;
76115;SDS011;64847;45.778;12.802;2024-02-26T13:46:48;2.90;;;2.20;;
76115;SDS011;64847;45.778;12.802;2024-02-26T13:49:14;2.43;;;2.20;;
76115;SDS011;64847;45.778;12.802;2024-02-26T13:51:40;2.33;;;2.07;;
76115;SDS011;64847;45.778;12.802;2024-02-26T13:54:06;2.20;;;2.00;;
76115;SDS011;64847;45.778;12.802;2024-02-26T13:56:32;2.53;;;2.00;;
76115;SDS011;64847;45.778;12.802;2024-02-26T13:58:57;2.07;;;1.97;;
76115;SDS011;64847;45.778;12.802;2024-02-26T14:01:23;2.00;;;1.83;;
76115;SDS011;64847;45.778;12.802;2024-02-26T14:03:49;2.70;;;2.03;;
76115;SDS011;64847;45.778;12.802;2024-02-26T14:06:15;2.73;;;1.87;;
76115;SDS011;64847;45.778;12.802;2024-02-26T14:08:41;2.77;;;1.60;;
76115;SDS011;64847;45.778;12.802;2024-02-26T14:11:06;2.73;;;2.10;;
76115;SDS011;64847;45.778;12.802;2024-02-26T14:13:31;2.63;;;2.10;;
76115;SDS011;64847;45.778;12.802;2024-02-26T14:15:57;2.63;;;1.97;;
76115;SDS011;64847;45.778;12.802;2024-02-26T14:18:23;2.50;;;1.90;;
76115;SDS011;64847;45.778;12.802;2024-02-26T14:20:49;2.30;;;2.10;;
76115;SDS011;64847;45.778;12.802;2024-02-26T14:23:14;2.33;;;2.10;;
76115;SDS011;64847;45.778;12.802;2024-02-26T14:25:40;2.23;;;2.00;;
76115;SDS011;64847;45.778;12.802;2024-02-26T14:28:05;2.00;;;1.87;;
76115;SDS011;64847;45.778;12.802;2024-02-26T14:30:31;2.30;;;2.10;;
76115;SDS011;64847;45.778;12.802;2024-02-26T14:32:57;2.10;;;1.97;;
76115;SDS011;64847;45.778;12.802;2024-02-26T14:35:23;2.20;;;2.00;;